Time;durP1;ratioP1;P1;durP2;ratioP2;P2;SDS_P1;SDS_P2;PMS_P1;PMS_P2;Temp;Humidity;BMP_temperature;BMP_pressure;BME280_temperature;BME280_humidity;BME280_pressure;Samples;Min_cycle;Max_cycle;Signal;HPM_P1;HPM_P2
2023/05/16 00:00:18;;;;;;;13.00;11.07;;;12.10;99.90;;;;;;5070596;28;20457;-81
2023/05/16 00:02:46;;;;;;;13.43;10.37;;;12.20;99.90;;;;;;5076131;28;20523;-83
2023/05/16 00:05:13;;;;;;;16.00;10.10;;;12.20;99.90;;;;;;5075012;28;20495;-82
2023/05/16 00:07:42;;;;;;;12.97;10.10;;;12.20;99.90;;;;;;5076029;28;20470;-82
2023/05/16 00:10:10;;;;;;;12.77;9.20;;;12.20;99.90;;;;;;5074986;28;20443;-82
2023/05/16 00:12:38;;;;;;;10.30;8.07;;;12.20;99.90;;;;;;5075561;28;20458;-82
2023/05/16 00:15:09;;;;;;;9.77;8.00;;;12.20;99.90;;;;;;5076639;28;20547;-82
2023/05/16 00:17:37;;;;;;;11.20;7.30;;;12.10;99.90;;;;;;5080778;28;20458;-83
2023/05/16 00:20:09;;;;;;;11.97;8.27;;;12.00;99.90;;;;;;5077956;28;20847;-84
2023/05/16 00:22:37;;;;;;;9.27;7.00;;;12.00;99.90;;;;;;5077974;28;20450;-83
2023/05/16 00:25:04;;;;;;;9.20;6.50;;;12.00;99.90;;;;;;5078047;28;20489;-82
2023/05/16 00:27:31;;;;;;;13.27;6.90;;;11.80;99.90;;;;;;5079005;28;20458;-81
2023/05/16 00:29:57;;;;;;;15.50;6.83;;;11.80;99.90;;;;;;5076657;28;20459;-82
2023/05/16 00:32:24;;;;;;;9.20;6.60;;;11.80;99.90;;;;;;5076833;28;20454;-82
2023/05/16 00:34:52;;;;;;;11.30;6.37;;;11.80;99.90;;;;;;5075182;28;20506;-81
2023/05/16 00:37:19;;;;;;;6.63;5.40;;;11.80;99.90;;;;;;5074748;28;20458;-82
2023/05/16 00:39:46;;;;;;;7.73;6.00;;;11.80;99.90;;;;;;5075132;28;20545;-82
2023/05/16 00:42:13;;;;;;;10.87;6.37;;;11.70;99.90;;;;;;5073494;28;20450;-82
2023/05/16 00:44:40;;;;;;;7.60;5.43;;;11.70;99.90;;;;;;5074336;28;20489;-81
2023/05/16 00:47:07;;;;;;;7.20;5.00;;;11.70;99.90;;;;;;5074826;28;20449;-83
2023/05/16 00:49:34;;;;;;;7.83;5.67;;;11.70;99.90;;;;;;5067558;28;20462;-82
2023/05/16 00:52:02;;;;;;;6.87;4.70;;;11.80;99.90;;;;;;5075443;28;20553;-82
2023/05/16 00:54:30;;;;;;;7.83;5.33;;;11.80;99.90;;;;;;5073934;28;20984;-83
2023/05/16 00:56:57;;;;;;;7.17;5.30;;;11.90;99.90;;;;;;5075667;28;20517;-83
2023/05/16 00:59:25;;;;;;;7.00;5.33;;;11.90;99.90;;;;;;5074603;28;20464;-82
2023/05/16 01:01:52;;;;;;;7.83;4.93;;;11.90;99.90;;;;;;5060581;28;20452;-82
2023/05/16 01:04:20;;;;;;;7.57;5.40;;;11.90;99.90;;;;;;5068068;28;20555;-82
2023/05/16 01:06:46;;;;;;;7.17;5.20;;;11.90;99.90;;;;;;5073375;28;20466;-83
2023/05/16 01:09:15;;;;;;;5.33;4.23;;;11.80;99.90;;;;;;5074681;28;20461;-81
2023/05/16 01:11:49;;;;;;;6.73;3.33;;;11.70;99.90;;;;;;5075119;28;20453;-82
2023/05/16 01:14:25;;;;;;;7.43;4.33;;;11.60;99.90;;;;;;5073166;28;21417;-82
2023/05/16 01:17:05;;;;;;;4.97;3.70;;;11.60;99.90;;;;;;5074765;28;20540;-84
2023/05/16 01:19:47;;;;;;;6.23;3.97;;;11.50;99.90;;;;;;5069871;28;20476;-81
2023/05/16 01:22:30;;;;;;;5.97;4.03;;;11.40;99.90;;;;;;5075938;28;20438;-82
2023/05/16 01:25:06;;;;;;;7.63;3.97;;;11.30;99.90;;;;;;5073351;28;20496;-84
2023/05/16 01:27:37;;;;;;;8.73;4.53;;;11.30;99.90;;;;;;5075406;28;20453;-82
2023/05/16 01:30:15;;;;;;;4.40;3.73;;;11.40;99.90;;;;;;5077630;28;20463;-82
2023/05/16 01:32:42;;;;;;;7.07;3.83;;;11.30;99.90;;;;;;5063241;28;20544;-81
2023/05/16 01:35:11;;;;;;;5.83;4.57;;;11.30;99.90;;;;;;5068694;28;20516;-82
2023/05/16 01:37:45;;;;;;;9.30;4.10;;;11.20;99.90;;;;;;5072258;28;20541;-81
2023/05/16 01:40:21;;;;;;;4.90;3.83;;;11.10;99.90;;;;;;5073022;28;20450;-81
2023/05/16 01:42:54;;;;;;;6.40;4.40;;;11.00;99.90;;;;;;5072394;28;20462;-83
2023/05/16 01:45:26;;;;;;;5.20;3.10;;;11.00;99.90;;;;;;5071818;28;20571;-82
2023/05/16 01:48:00;;;;;;;8.17;3.40;;;10.90;99.90;;;;;;5073441;28;20506;-81
2023/05/16 01:50:32;;;;;;;5.20;2.87;;;10.90;99.90;;;;;;5065043;28;20465;-82
2023/05/16 01:53:01;;;;;;;6.30;2.33;;;10.70;99.90;;;;;;5072188;28;20451;-82
2023/05/16 01:55:36;;;;;;;7.67;2.80;;;10.70;99.90;;;;;;5072874;28;20508;-81
2023/05/16 01:58:07;;;;;;;9.60;2.63;;;10.60;99.90;;;;;;5075255;28;20454;-82
2023/05/16 02:00:34;;;;;;;4.87;2.40;;;10.60;99.90;;;;;;5077497;28;20456;-83
2023/05/16 02:03:01;;;;;;;6.73;2.20;;;10.50;99.90;;;;;;5074821;28;20452;-83
2023/05/16 02:05:28;;;;;;;9.97;3.20;;;10.50;99.90;;;;;;5079961;28;20493;-84
2023/05/16 02:07:55;;;;;;;13.20;3.43;;;10.50;99.90;;;;;;5078364;28;20454;-82
2023/05/16 02:10:22;;;;;;;7.30;2.97;;;10.40;99.90;;;;;;5073964;28;20465;-83
2023/05/16 02:12:50;;;;;;;14.93;2.90;;;10.40;99.90;;;;;;5076208;28;20455;-82
2023/05/16 02:15:18;;;;;;;11.47;3.03;;;10.40;99.90;;;;;;5071167;28;20915;-82
2023/05/16 02:17:46;;;;;;;11.77;4.13;;;10.40;99.90;;;;;;5075010;28;20818;-83
2023/05/16 02:20:13;;;;;;;6.60;3.10;;;10.30;99.90;;;;;;5075255;28;20516;-83
2023/05/16 02:22:41;;;;;;;8.33;2.80;;;10.30;99.90;;;;;;5071880;28;21165;-82
2023/05/16 02:25:09;;;;;;;9.20;2.80;;;10.30;99.90;;;;;;5074721;28;21086;-81
2023/05/16 02:27:36;;;;;;;8.60;2.80;;;10.30;99.90;;;;;;5073734;28;20551;-87
2023/05/16 02:30:04;;;;;;;8.43;3.87;;;10.30;99.90;;;;;;5071815;28;20449;-85
2023/05/16 02:32:32;;;;;;;6.93;2.93;;;10.30;99.90;;;;;;5074960;28;20459;-86
2023/05/16 02:34:59;;;;;;;12.57;3.20;;;10.30;99.90;;;;;;5065633;28;20476;-82
2023/05/16 02:37:26;;;;;;;11.27;3.50;;;10.40;99.90;;;;;;5059168;28;20458;-81
2023/05/16 02:39:53;;;;;;;9.73;2.87;;;10.40;99.90;;;;;;5057237;28;20837;-82
2023/05/16 02:42:19;;;;;;;12.33;3.60;;;10.40;99.90;;;;;;5072037;28;20459;-82
2023/05/16 02:44:46;;;;;;;7.87;3.00;;;10.40;99.90;;;;;;5076325;28;20548;-82
2023/05/16 02:47:13;;;;;;;9.30;2.97;;;10.30;99.90;;;;;;5073161;28;20452;-80
2023/05/16 02:49:41;;;;;;;13.00;3.50;;;10.50;99.90;;;;;;5074836;28;20448;-81
2023/05/16 02:52:08;;;;;;;6.40;3.10;;;10.40;99.90;;;;;;5076271;28;20542;-81
2023/05/16 02:54:35;;;;;;;8.77;3.70;;;10.50;99.90;;;;;;5071437;28;20507;-81
2023/05/16 02:57:02;;;;;;;8.83;3.97;;;10.50;99.90;;;;;;5076476;28;21011;-81
2023/05/16 02:59:29;;;;;;;9.90;4.03;;;10.50;99.90;;;;;;5069216;28;20576;-82
2023/05/16 03:01:56;;;;;;;13.63;4.40;;;10.50;99.90;;;;;;5065765;28;20630;-82
2023/05/16 03:04:23;;;;;;;10.67;4.47;;;10.50;99.90;;;;;;5058874;28;20481;-82
2023/05/16 03:06:51;;;;;;;8.53;3.33;;;10.60;99.90;;;;;;5066981;28;20493;-82
2023/05/16 03:09:18;;;;;;;9.70;3.30;;;10.60;99.90;;;;;;5075945;28;21078;-82
2023/05/16 03:11:45;;;;;;;11.53;4.80;;;10.60;99.90;;;;;;5072496;28;20444;-84
2023/05/16 03:14:12;;;;;;;11.80;3.60;;;10.60;99.90;;;;;;5075998;28;20574;-82
2023/05/16 03:16:40;;;;;;;12.80;4.17;;;10.60;99.90;;;;;;5079790;28;20443;-83
2023/05/16 03:19:07;;;;;;;8.03;3.70;;;10.60;99.90;;;;;;5077148;28;20462;-84
2023/05/16 03:21:34;;;;;;;11.90;3.60;;;10.60;99.90;;;;;;5080195;28;20450;-84
2023/05/16 03:24:03;;;;;;;9.87;4.20;;;10.60;99.90;;;;;;5079102;28;20481;-84
2023/05/16 03:26:30;;;;;;;12.07;4.20;;;10.60;99.90;;;;;;5081921;28;20493;-83
2023/05/16 03:28:58;;;;;;;12.43;4.13;;;10.40;99.90;;;;;;5081906;28;20452;-83
2023/05/16 03:31:24;;;;;;;16.00;3.33;;;10.40;99.90;;;;;;5076203;28;20494;-84
2023/05/16 03:33:51;;;;;;;9.60;3.60;;;10.40;99.90;;;;;;5079419;28;20471;-82
2023/05/16 03:36:18;;;;;;;14.30;3.80;;;10.30;99.90;;;;;;5081003;28;20515;-83
2023/05/16 03:38:45;;;;;;;8.97;3.97;;;10.20;99.90;;;;;;5086215;28;20447;-82
2023/05/16 03:41:13;;;;;;;15.93;3.70;;;10.30;99.90;;;;;;5086070;28;20486;-84
2023/05/16 03:43:40;;;;;;;12.70;3.67;;;10.20;99.90;;;;;;5084178;28;20548;-82
2023/05/16 03:46:07;;;;;;;8.40;3.23;;;10.20;99.90;;;;;;5086008;28;20505;-81
2023/05/16 03:48:34;;;;;;;10.10;3.33;;;10.20;99.90;;;;;;5076980;28;20544;-83
2023/05/16 03:51:01;;;;;;;12.10;3.40;;;10.10;99.90;;;;;;5075339;28;20453;-82
2023/05/16 03:53:27;;;;;;;16.70;3.90;;;10.10;99.90;;;;;;5073406;28;20456;-81
2023/05/16 03:55:54;;;;;;;11.40;3.40;;;10.10;99.90;;;;;;5078205;22;20504;-79
2023/05/16 03:58:22;;;;;;;19.00;4.13;;;10.10;99.90;;;;;;5059333;28;20892;-80
2023/05/16 04:00:49;;;;;;;13.10;4.33;;;10.00;99.90;;;;;;5054808;28;20449;-79
2023/05/16 04:03:16;;;;;;;12.10;3.00;;;10.00;99.90;;;;;;5050139;28;20460;-81
2023/05/16 04:05:43;;;;;;;11.10;2.87;;;9.80;99.90;;;;;;5043409;28;20493;-79
2023/05/16 04:08:10;;;;;;;13.83;3.77;;;9.70;99.90;;;;;;5031063;28;20492;-79
2023/05/16 04:10:37;;;;;;;12.77;3.80;;;9.70;99.90;;;;;;5037887;28;20901;-81
2023/05/16 04:13:04;;;;;;;12.10;2.70;;;9.70;99.90;;;;;;5032627;28;20444;-79
2023/05/16 04:15:32;;;;;;;11.10;3.63;;;9.70;99.90;;;;;;5036544;28;20475;-80
2023/05/16 04:17:59;;;;;;;10.07;3.20;;;9.60;99.90;;;;;;5039004;28;20964;-79
2023/05/16 04:20:26;;;;;;;16.53;3.37;;;9.50;99.90;;;;;;5033465;28;20460;-78
2023/05/16 04:22:53;;;;;;;15.73;3.20;;;9.60;99.90;;;;;;5043615;28;20449;-79
2023/05/16 04:25:20;;;;;;;15.67;3.57;;;9.50;99.90;;;;;;5035713;28;20499;-80
2023/05/16 04:27:47;;;;;;;10.67;3.33;;;9.60;99.90;;;;;;5042037;28;20470;-80
2023/05/16 04:30:14;;;;;;;19.87;3.50;;;9.60;99.90;;;;;;5035832;28;20464;-79
2023/05/16 04:32:42;;;;;;;20.23;4.10;;;9.70;99.90;;;;;;5020297;28;20467;-79
2023/05/16 04:35:09;;;;;;;7.13;2.87;;;9.70;99.90;;;;;;5036164;28;20487;-79
2023/05/16 04:37:36;;;;;;;15.00;3.10;;;9.70;99.90;;;;;;5036306;28;20484;-79
2023/05/16 04:40:04;;;;;;;13.03;3.03;;;9.70;99.90;;;;;;5044943;28;20461;-79
2023/05/16 04:42:31;;;;;;;13.40;3.50;;;9.60;99.90;;;;;;5036982;28;20483;-81
2023/05/16 04:44:58;;;;;;;20.33;4.10;;;9.60;99.90;;;;;;5035596;28;20480;-80
2023/05/16 04:47:25;;;;;;;9.27;3.37;;;9.60;99.90;;;;;;5038463;28;20494;-81
2023/05/16 04:49:53;;;;;;;7.53;2.70;;;9.50;99.90;;;;;;5037826;28;20471;-81
2023/05/16 04:52:20;;;;;;;13.93;3.50;;;9.60;99.90;;;;;;5052678;28;20536;-78
2023/05/16 04:54:51;;;;;;;12.20;3.70;;;9.60;99.90;;;;;;5053277;28;20496;-78
2023/05/16 04:57:17;;;;;;;13.33;3.83;;;9.60;99.90;;;;;;5039758;28;20530;-77
2023/05/16 04:59:44;;;;;;;13.93;3.57;;;9.60;99.90;;;;;;5036510;28;20463;-78
2023/05/16 05:02:11;;;;;;;10.60;3.73;;;9.70;99.90;;;;;;5036487;28;20821;-78
2023/05/16 05:04:38;;;;;;;9.17;2.73;;;9.70;99.90;;;;;;5050487;28;20454;-78
2023/05/16 05:07:07;;;;;;;7.10;2.90;;;9.70;99.90;;;;;;5032529;28;20567;-78
2023/05/16 05:09:33;;;;;;;14.23;3.00;;;9.70;99.90;;;;;;5029543;28;20456;-80
2023/05/16 05:12:00;;;;;;;8.00;3.90;;;9.80;99.90;;;;;;5031886;28;20467;-79
2023/05/16 05:14:27;;;;;;;8.47;2.80;;;9.80;99.90;;;;;;5044550;28;20546;-79
2023/05/16 05:16:54;;;;;;;15.83;4.03;;;9.80;99.90;;;;;;5035907;28;20459;-79
2023/05/16 05:19:20;;;;;;;10.70;2.90;;;9.80;99.90;;;;;;5034391;28;20460;-79
2023/05/16 05:21:47;;;;;;;11.43;2.97;;;9.70;99.90;;;;;;5033900;28;20473;-78
2023/05/16 05:24:15;;;;;;;15.30;2.80;;;9.70;99.90;;;;;;4983376;28;20855;-78
2023/05/16 05:26:42;;;;;;;9.03;3.17;;;9.80;99.90;;;;;;5030930;28;20489;-79
2023/05/16 05:29:09;;;;;;;9.93;3.33;;;9.70;99.90;;;;;;5029216;28;20551;-79
2023/05/16 05:31:36;;;;;;;12.07;3.13;;;9.70;99.90;;;;;;5036273;28;20467;-78
2023/05/16 05:34:03;;;;;;;14.93;3.23;;;9.80;99.90;;;;;;5035425;28;20459;-78
2023/05/16 05:36:30;;;;;;;12.67;2.90;;;9.80;99.90;;;;;;5056049;28;20482;-79
2023/05/16 05:38:57;;;;;;;15.47;3.10;;;9.90;99.90;;;;;;5045576;28;20468;-79
2023/05/16 05:41:26;;;;;;;12.13;3.10;;;9.90;99.90;;;;;;5041543;28;20457;-79
2023/05/16 05:43:52;;;;;;;8.33;3.10;;;9.90;99.90;;;;;;5033242;28;20452;-79
2023/05/16 05:46:19;;;;;;;8.70;3.20;;;9.90;99.90;;;;;;5036505;28;20514;-78
2023/05/16 05:48:46;;;;;;;12.93;3.57;;;10.10;99.90;;;;;;5035296;28;20476;-78
2023/05/16 05:51:13;;;;;;;12.27;2.50;;;10.30;99.90;;;;;;5037903;28;20464;-79
2023/05/16 05:53:40;;;;;;;9.40;2.93;;;10.40;99.90;;;;;;5038334;28;20466;-81
2023/05/16 05:56:07;;;;;;;15.90;2.70;;;10.40;99.90;;;;;;5035033;28;20480;-80
2023/05/16 05:58:35;;;;;;;11.80;2.27;;;10.50;99.90;;;;;;5035519;28;20453;-81
2023/05/16 06:01:02;;;;;;;10.10;3.10;;;10.60;99.90;;;;;;5034832;28;20470;-80
2023/05/16 06:03:29;;;;;;;13.00;2.73;;;10.80;99.90;;;;;;5030128;28;20468;-81
2023/05/16 06:05:57;;;;;;;12.30;3.00;;;11.00;99.90;;;;;;5034893;28;20478;-81
2023/05/16 06:08:24;;;;;;;12.30;3.23;;;11.10;99.90;;;;;;5040477;28;20981;-82
2023/05/16 06:10:51;;;;;;;9.33;2.70;;;11.10;99.90;;;;;;5040719;28;20449;-80
2023/05/16 06:13:18;;;;;;;10.80;3.70;;;11.30;99.90;;;;;;5042653;28;20453;-81
2023/05/16 06:15:50;;;;;;;10.03;2.80;;;11.30;93.00;;;;;;5036823;28;20471;-81
2023/05/16 06:18:17;;;;;;;10.03;2.40;;;11.00;99.60;;;;;;5038075;28;20456;-81
2023/05/16 06:20:44;;;;;;;10.80;2.50;;;10.90;93.20;;;;;;5037787;28;20456;-82
2023/05/16 06:23:11;;;;;;;13.13;3.80;;;10.80;99.90;;;;;;5040676;28;20466;-81
2023/05/16 06:25:38;;;;;;;9.40;2.97;;;10.70;99.90;;;;;;5034573;28;21000;-81
2023/05/16 06:28:05;;;;;;;7.13;2.53;;;10.70;99.90;;;;;;5041588;28;20488;-81
2023/05/16 06:30:32;;;;;;;10.83;2.77;;;10.90;99.90;;;;;;5041462;28;20454;-81
2023/05/16 06:33:00;;;;;;;13.30;3.00;;;10.70;99.90;;;;;;5042943;28;20595;-81
2023/05/16 06:35:27;;;;;;;10.33;3.10;;;10.60;99.90;;;;;;5041624;28;20479;-82
2023/05/16 06:37:54;;;;;;;10.33;2.53;;;10.70;99.90;;;;;;5041880;28;20468;-81
2023/05/16 06:40:21;;;;;;;10.17;2.27;;;10.80;99.90;;;;;;5046991;28;20849;-81
2023/05/16 06:42:47;;;;;;;9.73;2.30;;;11.00;99.90;;;;;;5041042;28;20459;-82
2023/05/16 06:45:14;;;;;;;13.07;2.67;;;11.20;78.00;;;;;;5040226;28;22472;-81
2023/05/16 06:47:41;;;;;;;11.70;2.50;;;11.60;1.00;;;;;;5041602;28;20549;-82
2023/05/16 06:50:10;;;;;;;7.30;2.10;;;11.90;18.90;;;;;;5040189;28;20930;-80
2023/05/16 06:52:37;;;;;;;7.93;2.00;;;12.20;1.00;;;;;;5038559;28;20462;-81
2023/05/16 06:55:05;;;;;;;6.83;1.80;;;12.30;1.00;;;;;;5039164;28;20488;-82
2023/05/16 06:57:32;;;;;;;7.53;1.50;;;12.30;1.00;;;;;;5039128;28;20482;-82
2023/05/16 06:59:58;;;;;;;9.93;1.97;;;12.30;1.00;;;;;;5041579;28;20461;-81
2023/05/16 07:02:25;;;;;;;7.83;1.73;;;12.30;1.00;;;;;;5042774;28;20893;-81
2023/05/16 07:04:52;;;;;;;6.83;2.37;;;12.20;1.00;;;;;;5045069;28;20477;-81
2023/05/16 07:07:20;;;;;;;8.70;1.63;;;12.20;1.00;;;;;;5038884;28;20585;-81
2023/05/16 07:09:47;;;;;;;11.87;1.90;;;12.20;1.00;;;;;;5042138;28;20465;-81
2023/05/16 07:12:14;;;;;;;10.10;2.00;;;12.20;1.00;;;;;;5041738;28;20458;-81
2023/05/16 07:14:42;;;;;;;14.27;2.50;;;12.30;1.00;;;;;;5040437;28;20486;-82
2023/05/16 07:17:09;;;;;;;6.40;2.40;;;12.50;1.00;;;;;;5037535;28;20469;-81
2023/05/16 07:19:36;;;;;;;10.67;2.07;;;12.70;1.00;;;;;;5036053;28;20938;-81
2023/05/16 07:22:02;;;;;;;4.53;1.47;;;12.80;99.90;;;;;;5034412;28;20448;-81
2023/05/16 07:24:31;;;;;;;8.03;1.80;;;13.10;1.00;;;;;;5034104;28;20461;-82
2023/05/16 07:26:58;;;;;;;5.20;1.90;;;13.10;99.90;;;;;;5032918;28;20509;-81
2023/05/16 07:29:25;;;;;;;12.67;2.13;;;13.40;99.90;;;;;;5036715;28;20471;-81
2023/05/16 07:31:51;;;;;;;8.33;1.80;;;13.60;99.90;;;;;;5036477;28;20576;-82
2023/05/16 07:34:18;;;;;;;8.10;2.13;;;13.80;1.00;;;;;;5037849;28;20546;-81
2023/05/16 07:36:45;;;;;;;8.43;1.90;;;14.10;99.90;;;;;;5038063;28;20526;-82
2023/05/16 07:39:12;;;;;;;6.77;1.50;;;14.50;99.90;;;;;;5038667;28;20452;-81
2023/05/16 07:41:40;;;;;;;6.33;1.77;;;14.60;99.90;;;;;;5037239;28;20466;-81
2023/05/16 07:44:07;;;;;;;6.57;2.00;;;14.70;1.00;;;;;;5028454;28;20479;-82
2023/05/16 07:46:34;;;;;;;7.47;2.13;;;14.80;99.90;;;;;;5030044;28;21112;-81
2023/05/16 07:49:00;;;;;;;7.23;1.70;;;14.40;99.90;;;;;;5020095;28;20459;-81
2023/05/16 07:51:27;;;;;;;8.20;1.60;;;14.10;1.00;;;;;;5019059;28;20524;-81
2023/05/16 07:53:54;;;;;;;8.27;3.80;;;13.90;1.00;;;;;;5032086;28;20446;-82
2023/05/16 07:56:22;;;;;;;8.60;1.53;;;13.80;1.00;;;;;;5027646;28;20580;-81
2023/05/16 07:58:50;;;;;;;4.20;1.40;;;13.60;99.90;;;;;;5027661;28;20446;-82
2023/05/16 08:01:17;;;;;;;6.90;2.13;;;13.50;1.00;;;;;;5036034;28;20459;-82
2023/05/16 08:03:44;;;;;;;7.53;1.63;;;13.40;9.10;;;;;;5031610;28;20550;-80
2023/05/16 08:06:11;;;;;;;3.03;1.43;;;13.40;99.90;;;;;;5035456;28;20543;-82
2023/05/16 08:08:38;;;;;;;6.57;1.23;;;13.60;99.90;;;;;;5036755;28;20556;-81
2023/05/16 08:11:05;;;;;;;6.63;1.57;;;14.00;99.90;;;;;;5029753;28;20461;-81
2023/05/16 08:13:32;;;;;;;5.47;1.57;;;14.60;99.90;;;;;;5035868;28;20498;-82
2023/05/16 08:16:00;;;;;;;4.57;1.30;;;15.10;56.70;;;;;;5030652;28;20483;-82
2023/05/16 08:18:27;;;;;;;4.30;1.00;;;15.20;1.00;;;;;;5030843;28;20448;-83
2023/05/16 08:20:54;;;;;;;4.57;1.43;;;15.20;1.00;;;;;;5033186;28;20459;-80
2023/05/16 08:23:21;;;;;;;4.73;1.40;;;15.20;1.00;;;;;;5032384;28;20492;-84
2023/05/16 08:25:47;;;;;;;7.97;1.80;;;15.70;1.00;;;;;;5032160;28;20445;-82
2023/05/16 08:28:14;;;;;;;4.63;1.40;;;16.10;1.00;;;;;;5034202;28;20288;-81
2023/05/16 08:30:41;;;;;;;4.23;1.50;;;17.20;1.00;;;;;;5036959;28;21056;-80
2023/05/16 08:33:10;;;;;;;7.00;1.50;;;18.10;1.00;;;;;;5036123;28;20458;-82
2023/05/16 08:35:36;;;;;;;4.07;1.40;;;18.60;99.90;;;;;;5037810;28;20476;-80
2023/05/16 08:38:03;;;;;;;6.80;1.87;;;19.70;99.90;;;;;;5043835;28;20518;-81
2023/05/16 08:40:30;;;;;;;6.87;1.70;;;19.50;99.90;;;;;;5044195;28;20975;-82
2023/05/16 08:42:57;;;;;;;5.27;1.30;;;18.30;99.90;;;;;;5031558;28;20460;-83
2023/05/16 08:45:25;;;;;;;4.53;1.20;;;18.20;99.90;;;;;;5030777;28;20488;-82
2023/05/16 08:47:55;;;;;;;5.83;1.53;;;19.50;99.90;;;;;;5031295;28;20499;-82
2023/05/16 08:50:24;;;;;;;5.13;1.40;;;21.40;99.90;;;;;;5037687;28;20462;-82
2023/05/16 08:52:52;;;;;;;4.87;1.53;;;22.10;99.90;;;;;;5036946;28;20467;-84
2023/05/16 08:55:21;;;;;;;3.80;1.33;;;20.90;99.90;;;;;;5034170;28;20491;-83
2023/05/16 08:57:49;;;;;;;4.93;1.57;;;19.80;99.90;;;;;;5036244;28;20471;-82
2023/05/16 09:00:18;;;;;;;4.53;1.40;;;18.80;99.90;;;;;;5031387;28;20455;-82
2023/05/16 09:02:45;;;;;;;6.43;1.40;;;18.00;99.90;;;;;;5038610;28;20478;-83
2023/05/16 09:05:13;;;;;;;5.33;1.50;;;17.40;99.90;;;;;;5029679;28;20476;-82
2023/05/16 09:07:41;;;;;;;9.27;1.60;;;17.10;99.90;;;;;;5034098;28;20473;-83
2023/05/16 09:10:09;;;;;;;6.57;1.30;;;16.60;99.90;;;;;;5035981;28;20592;-84
2023/05/16 09:12:36;;;;;;;4.73;1.20;;;16.20;99.90;;;;;;5035942;28;20453;-85
2023/05/16 09:15:05;;;;;;;3.60;1.40;;;16.50;99.90;;;;;;5037963;28;20545;-81
2023/05/16 09:17:35;;;;;;;5.93;1.43;;;18.40;99.90;;;;;;5028212;28;20446;-83
2023/05/16 09:20:09;;;;;;;4.03;1.00;;;20.30;99.90;;;;;;5037094;28;20862;-83
2023/05/16 09:22:36;;;;;;;8.40;1.10;;;21.20;99.90;;;;;;5037447;28;20559;-83
2023/05/16 09:25:05;;;;;;;5.37;1.70;;;22.00;99.90;;;;;;5037543;28;20504;-82
2023/05/16 09:27:32;;;;;;;4.87;1.20;;;21.10;99.90;;;;;;5034799;28;20835;-85
2023/05/16 09:29:59;;;;;;;5.03;1.40;;;20.60;99.90;;;;;;5033651;28;20463;-83
2023/05/16 09:32:26;;;;;;;6.10;1.93;;;20.80;99.90;;;;;;5034009;28;20475;-82
2023/05/16 09:34:57;;;;;;;4.20;1.07;;;23.40;99.90;;;;;;5034513;28;20460;-83
2023/05/16 09:37:24;;;;;;;3.73;1.30;;;25.10;99.90;;;;;;5037545;28;20483;-82
2023/05/16 09:39:53;;;;;;;6.03;1.13;;;24.40;99.90;;;;;;5034200;28;20524;-81
2023/05/16 09:42:22;;;;;;;4.53;1.30;;;23.00;99.90;;;;;;5035742;28;20507;-82
2023/05/16 09:44:50;;;;;;;4.87;1.50;;;22.20;99.90;;;;;;5032354;28;20476;-82
2023/05/16 09:47:18;;;;;;;3.70;1.03;;;22.70;99.90;;;;;;5032436;28;20491;-83
2023/05/16 09:49:47;;;;;;;4.47;1.37;;;23.80;99.90;;;;;;5038343;28;20544;-82
2023/05/16 09:52:15;;;;;;;2.67;1.23;;;25.10;99.90;;;;;;5037718;28;20469;-82
2023/05/16 09:54:42;;;;;;;4.30;2.07;;;24.30;99.90;;;;;;5032360;28;20463;-83
2023/05/16 09:57:09;;;;;;;4.10;1.17;;;22.20;99.90;;;;;;5030080;28;20544;-82
2023/05/16 09:59:38;;;;;;;2.87;1.10;;;20.70;99.90;;;;;;5038230;28;20452;-83
2023/05/16 10:02:07;;;;;;;2.83;0.97;;;21.00;99.90;;;;;;5033405;28;20531;-83
2023/05/16 10:04:34;;;;;;;2.77;1.23;;;22.00;99.90;;;;;;5035509;28;20449;-83
2023/05/16 10:07:03;;;;;;;3.50;1.30;;;21.70;99.90;;;;;;5039569;28;20461;-81
2023/05/16 10:09:32;;;;;;;4.00;1.20;;;21.30;99.90;;;;;;5033850;28;20871;-81
2023/05/16 10:12:03;;;;;;;3.53;1.00;;;21.80;99.90;;;;;;5038467;28;20929;-83
2023/05/16 10:14:33;;;;;;;4.03;1.50;;;23.20;99.90;;;;;;5029342;28;20449;-83
2023/05/16 10:17:03;;;;;;;3.13;1.30;;;22.90;99.90;;;;;;5037463;28;20449;-82
2023/05/16 10:19:32;;;;;;;5.00;1.60;;;23.30;99.90;;;;;;5033024;28;20562;-82
2023/05/16 10:22:04;;;;;;;4.83;1.20;;;25.50;99.90;;;;;;5034193;28;20449;-82
2023/05/16 10:24:39;;;;;;;3.40;1.00;;;27.90;99.90;;;;;;5031915;28;20441;-83
2023/05/16 10:27:06;;;;;;;4.90;1.03;;;28.70;99.90;;;;;;5032863;28;20461;-82
2023/05/16 10:29:33;;;;;;;3.50;1.20;;;27.00;99.90;;;;;;5034460;28;20445;-82
2023/05/16 10:32:03;;;;;;;4.90;1.30;;;25.20;99.90;;;;;;5036564;28;20204;-84
2023/05/16 10:34:30;;;;;;;3.03;1.20;;;24.10;99.90;;;;;;5034760;28;20441;-83
2023/05/16 10:36:57;;;;;;;4.23;1.10;;;22.80;99.90;;;;;;5033588;28;20468;-83
2023/05/16 10:39:25;;;;;;;3.67;1.03;;;22.10;99.90;;;;;;5037161;28;20445;-83
2023/05/16 10:41:53;;;;;;;4.70;1.23;;;21.40;99.90;;;;;;5034766;28;20941;-82
2023/05/16 10:44:20;;;;;;;3.77;1.17;;;20.30;99.90;;;;;;5034155;28;20433;-83
2023/05/16 10:46:47;;;;;;;5.20;0.93;;;19.50;99.90;;;;;;5031544;28;20568;-83
2023/05/16 10:49:23;;;;;;;6.20;1.20;;;19.00;99.90;;;;;;5033387;28;20514;-85
2023/05/16 10:52:07;;;;;;;4.63;1.53;;;18.70;99.90;;;;;;5033245;28;20455;-84
2023/05/16 10:54:39;;;;;;;3.80;1.10;;;18.80;99.90;;;;;;5033859;28;20506;-82
2023/05/16 10:57:08;;;;;;;4.63;1.17;;;20.20;99.90;;;;;;5040590;28;20495;-82
2023/05/16 10:59:43;;;;;;;2.80;1.10;;;23.20;99.90;;;;;;5040611;28;20444;-84
2023/05/16 11:02:23;;;;;;;3.30;1.00;;;26.80;99.90;;;;;;5041875;28;20544;-84
2023/05/16 11:04:52;;;;;;;3.80;1.10;;;29.30;99.90;;;;;;5041790;28;20476;-82
2023/05/16 11:07:21;;;;;;;5.77;1.47;;;30.30;99.90;;;;;;5036616;28;20480;-84
2023/05/16 11:10:03;;;;;;;4.43;1.27;;;30.50;99.90;;;;;;5042635;28;20448;-84
2023/05/16 11:12:44;;;;;;;4.60;1.37;;;31.70;99.90;;;;;;5039147;28;21029;-85
2023/05/16 11:15:22;;;;;;;3.23;1.10;;;33.90;99.90;;;;;;5035816;28;20468;-85
2023/05/16 11:17:50;;;;;;;4.17;1.23;;;34.30;99.90;;;;;;5035605;28;20445;-82
2023/05/16 11:20:30;;;;;;;4.37;1.57;;;32.00;99.90;;;;;;5033846;28;20464;-84
2023/05/16 11:23:18;;;;;;;4.53;1.50;;;30.80;99.90;;;;;;5040000;28;20457;-82
2023/05/16 11:25:46;;;;;;;5.13;1.30;;;30.80;99.90;;;;;;5034301;28;20873;-84
2023/05/16 11:28:14;;;;;;;4.40;1.20;;;31.80;99.90;;;;;;5041660;28;20491;-83
2023/05/16 11:30:43;;;;;;;5.83;1.30;;;33.20;99.90;;;;;;5041905;28;20441;-84
2023/05/16 11:33:11;;;;;;;3.70;1.20;;;34.20;99.90;;;;;;5041829;28;20441;-84
2023/05/16 11:35:39;;;;;;;3.93;1.20;;;34.50;99.90;;;;;;5041397;28;20481;-83
2023/05/16 11:38:06;;;;;;;3.70;1.37;;;32.30;99.90;;;;;;5041837;28;20453;-84
2023/05/16 11:40:34;;;;;;;4.20;1.20;;;29.60;99.90;;;;;;5041463;28;20452;-83
2023/05/16 11:43:02;;;;;;;4.47;1.50;;;27.20;99.90;;;;;;5041199;28;20452;-84
2023/05/16 11:45:29;;;;;;;3.70;1.37;;;24.90;99.90;;;;;;5041483;28;20477;-85
2023/05/16 11:48:02;;;;;;;6.57;1.60;;;23.00;99.90;;;;;;5041659;28;20560;-84
2023/05/16 11:50:30;;;;;;;3.93;1.40;;;21.50;99.90;;;;;;5036624;28;20491;-83
2023/05/16 11:52:58;;;;;;;4.13;1.30;;;20.20;99.90;;;;;;5039362;28;20456;-82
2023/05/16 11:55:28;;;;;;;5.27;1.10;;;19.70;99.90;;;;;;5039610;28;20787;-83
2023/05/16 11:57:56;;;;;;;4.80;1.47;;;20.50;99.90;;;;;;5058665;28;20470;-84
2023/05/16 12:00:25;;;;;;;4.27;1.00;;;23.90;99.90;;;;;;5059537;28;20460;-85
2023/05/16 12:02:53;;;;;;;3.40;1.10;;;26.90;99.90;;;;;;5043155;28;20461;-84
2023/05/16 12:05:24;;;;;;;3.60;1.13;;;28.70;99.90;;;;;;5038043;28;21079;-83
2023/05/16 12:07:53;;;;;;;3.93;1.37;;;31.40;99.90;;;;;;5042784;28;20483;-82
2023/05/16 12:10:21;;;;;;;4.00;1.40;;;33.30;99.90;;;;;;5038375;28;20464;-83
2023/05/16 12:12:51;;;;;;;3.17;0.90;;;34.60;99.90;;;;;;5040724;28;20515;-83
2023/05/16 12:15:19;;;;;;;2.93;1.17;;;34.60;99.90;;;;;;5040237;28;20561;-84
2023/05/16 12:17:47;;;;;;;3.40;1.17;;;34.80;99.90;;;;;;5048582;28;20460;-84
2023/05/16 12:20:15;;;;;;;3.90;1.17;;;34.00;99.90;;;;;;5037047;28;20495;-85
2023/05/16 12:22:43;;;;;;;3.97;1.27;;;32.90;99.90;;;;;;5038464;28;20571;-85
2023/05/16 12:25:25;;;;;;;2.63;0.90;;;30.60;99.90;;;;;;5038454;28;20613;-85
2023/05/16 12:27:53;;;;;;;2.87;1.00;;;28.20;99.90;;;;;;5042263;28;20576;-84
2023/05/16 12:30:23;;;;;;;2.93;1.10;;;26.10;99.90;;;;;;5044342;28;20480;-84
2023/05/16 12:32:55;;;;;;;3.83;1.43;;;25.60;99.90;;;;;;5040378;28;20457;-83
2023/05/16 12:35:22;;;;;;;3.07;0.90;;;25.20;99.90;;;;;;5039489;28;20980;-84
2023/05/16 12:37:49;;;;;;;4.13;1.40;;;24.00;99.90;;;;;;5039727;28;20473;-83
2023/05/16 12:40:16;;;;;;;2.70;1.03;;;25.80;99.90;;;;;;5040648;28;20480;-85
2023/05/16 12:42:45;;;;;;;3.70;1.37;;;28.70;99.90;;;;;;5039742;28;20555;-84
2023/05/16 12:45:16;;;;;;;4.77;1.53;;;30.90;99.90;;;;;;5040428;28;20475;-83
2023/05/16 12:47:44;;;;;;;3.30;1.30;;;32.50;99.90;;;;;;5040806;28;20449;-83
2023/05/16 12:50:13;;;;;;;2.83;0.90;;;33.70;99.90;;;;;;5040912;28;20453;-84